createdAt,value
2023-02-24T00:02:29.478Z,27.25
2023-02-24T00:05:01.807Z,24.80
2023-02-24T00:07:34.736Z,25.45
2023-02-24T00:10:09.488Z,26.45
2023-02-24T00:12:43.816Z,25.42
2023-02-24T00:15:18.011Z,23.55
2023-02-24T00:17:51.461Z,25.80
2023-02-24T00:20:24.321Z,29.05
2023-02-24T00:22:57.807Z,29.88
2023-02-24T00:25:31.208Z,24.38
2023-02-24T00:28:03.411Z,27.00
2023-02-24T00:30:48.169Z,28.55
2023-02-24T00:33:23.600Z,24.70
2023-02-24T00:35:55.943Z,24.48
2023-02-24T00:38:39.454Z,23.95
2023-02-24T00:41:17.301Z,26.98
2023-02-24T00:43:50.867Z,26.30
2023-02-24T00:46:25.995Z,31.00
2023-02-24T00:49:10.493Z,25.00
2023-02-24T00:51:54.295Z,27.65
2023-02-24T00:54:29.284Z,29.35
2023-02-24T00:57:02.908Z,30.77
2023-02-24T00:59:36.130Z,23.33
2023-02-24T01:02:11.526Z,29.02
2023-02-24T01:04:44.797Z,29.17
2023-02-24T01:07:17.503Z,26.52
2023-02-24T01:09:50.570Z,26.33
2023-02-24T01:12:41.319Z,25.80
2023-02-24T01:15:22.440Z,24.10
2023-02-24T01:17:54.667Z,25.67
2023-02-24T01:20:30.421Z,22.95
2023-02-24T01:23:03.946Z,24.90
2023-02-24T01:25:35.891Z,24.00
2023-02-24T01:28:11.147Z,23.20
2023-02-24T01:30:43.887Z,24.75
2023-02-24T01:33:15.992Z,24.05
2023-02-24T01:35:49.084Z,28.02
2023-02-24T01:38:23.378Z,28.52
2023-02-24T01:40:59.368Z,25.40
2023-02-24T01:43:33.458Z,26.17
2023-02-24T01:46:26.908Z,24.25
2023-02-24T01:49:12.466Z,26.73
2023-02-24T01:52:17.461Z,24.77
2023-02-24T01:55:29.385Z,24.00
2023-02-24T01:58:25.070Z,28.33
2023-02-24T02:00:59.539Z,24.98
2023-02-24T02:03:35.186Z,27.55
2023-02-24T02:06:13.561Z,26.10
2023-02-24T02:09:00.518Z,29.60
2023-02-24T02:11:33.217Z,27.58
2023-02-24T02:14:05.670Z,28.08
2023-02-24T02:17:16.439Z,26.33
2023-02-24T02:20:20.089Z,29.77
2023-02-24T02:23:18.535Z,27.45
2023-02-24T02:26:32.624Z,27.95
2023-02-24T02:29:46.698Z,27.20
2023-02-24T02:33:21.678Z,28.23
2023-02-24T02:36:27.848Z,26.70
2023-02-24T02:39:12.174Z,26.35
2023-02-24T02:42:20.136Z,29.30
2023-02-24T02:45:33.409Z,31.20
2023-02-24T02:48:54.525Z,26.33
2023-02-24T02:51:46.886Z,30.50
2023-02-24T02:54:51.201Z,27.13
2023-02-24T02:57:30.513Z,30.48
2023-02-24T03:00:23.228Z,26.48
2023-02-24T03:03:07.676Z,28.05
2023-02-24T03:05:52.953Z,29.35
2023-02-24T03:08:40.188Z,31.75
2023-02-24T03:11:18.819Z,30.35
2023-02-24T03:13:54.507Z,26.42
2023-02-24T03:16:28.181Z,28.10
2023-02-24T03:19:06.302Z,32.83
2023-02-24T03:21:45.400Z,27.58
2023-02-24T03:24:24.345Z,29.48
2023-02-24T03:27:42.583Z,29.08
2023-02-24T03:30:23.539Z,25.00
2023-02-24T03:33:20.901Z,29.38
2023-02-24T03:36:01.774Z,31.02
2023-02-24T03:38:38.570Z,31.10
2023-02-24T03:41:11.501Z,33.60
2023-02-24T03:43:47.880Z,31.23
2023-02-24T03:46:21.555Z,38.53
2023-02-24T03:49:02.978Z,36.92
2023-02-24T03:51:44.813Z,37.35
2023-02-24T03:55:13.835Z,35.55
2023-02-24T03:58:31.322Z,36.30
2023-02-24T04:01:16.868Z,36.75
2023-02-24T04:04:01.590Z,37.75
2023-02-24T04:07:04.642Z,38.90
2023-02-24T04:10:02.752Z,40.20
2023-02-24T04:12:49.889Z,39.05
2023-02-24T04:15:44.081Z,40.15
2023-02-24T04:18:28.153Z,34.88
2023-02-24T04:21:05.466Z,36.83
2023-02-24T04:23:43.271Z,45.75
2023-02-24T04:26:17.995Z,42.00
2023-02-24T04:28:50.803Z,41.75
2023-02-24T04:31:26.881Z,43.55
2023-02-24T04:34:01.977Z,45.10
2023-02-24T04:36:34.232Z,44.20
2023-02-24T04:39:07.635Z,46.70
2023-02-24T04:41:39.650Z,49.90
2023-02-24T04:44:11.761Z,42.72
2023-02-24T04:46:45.490Z,45.70
2023-02-24T04:49:20.176Z,41.28
2023-02-24T04:51:53.145Z,45.42
2023-02-24T04:54:25.676Z,46.17
2023-02-24T04:56:59.499Z,46.55
2023-02-24T04:59:31.642Z,44.90
2023-02-24T05:02:04.360Z,51.75
2023-02-24T05:04:38.816Z,50.75
2023-02-24T05:07:13.310Z,43.33
2023-02-24T05:09:49.015Z,53.03
2023-02-24T05:12:21.218Z,49.00
2023-02-24T05:14:53.215Z,54.30
2023-02-24T05:17:25.455Z,50.50
2023-02-24T05:20:25.064Z,46.90
2023-02-24T05:23:17.216Z,48.50
2023-02-24T05:25:49.205Z,43.72
2023-02-24T05:28:26.324Z,54.60
2023-02-24T05:31:08.357Z,53.13
2023-02-24T05:33:44.874Z,51.28
2023-02-24T05:36:19.378Z,47.85
2023-02-24T05:39:07.853Z,55.58
2023-02-24T05:41:43.703Z,51.97
2023-02-24T05:44:26.084Z,45.53
2023-02-24T05:46:59.311Z,49.60
2023-02-24T05:49:34.486Z,51.78
2023-02-24T05:52:08.983Z,47.95
2023-02-24T05:54:42.722Z,55.00
2023-02-24T05:57:21.108Z,49.10
2023-02-24T05:59:55.899Z,53.97
2023-02-24T06:02:29.294Z,54.80
2023-02-24T06:05:08.926Z,52.50
2023-02-24T06:07:43.225Z,55.28
2023-02-24T06:10:18.309Z,49.55
2023-02-24T06:12:55.090Z,50.55
2023-02-24T06:15:27.726Z,50.70
2023-02-24T06:18:03.919Z,53.50
2023-02-24T06:20:35.954Z,54.35
2023-02-24T06:23:09.037Z,52.45
2023-02-24T06:25:42.163Z,55.63
2023-02-24T06:28:14.490Z,53.63
2023-02-24T06:30:46.492Z,54.30
2023-02-24T06:33:18.612Z,53.72
2023-02-24T06:35:50.592Z,54.10
2023-02-24T06:38:25.929Z,51.75
2023-02-24T06:40:59.109Z,52.22
2023-02-24T06:43:35.441Z,50.85
2023-02-24T06:46:14.052Z,58.88
2023-02-24T06:48:48.138Z,55.45
2023-02-24T06:51:20.365Z,56.92
2023-02-24T06:53:54.203Z,63.33
2023-02-24T06:56:28.787Z,55.25
2023-02-24T06:59:01.340Z,60.13
2023-02-24T07:01:56.208Z,58.75
2023-02-24T07:04:29.836Z,62.97
2023-02-24T07:07:22.639Z,65.55
2023-02-24T07:09:54.650Z,66.50
2023-02-24T07:12:26.722Z,61.63
2023-02-24T07:14:58.997Z,58.42
2023-02-24T07:17:31.011Z,65.97
2023-02-24T07:20:11.698Z,58.95
2023-02-24T07:22:56.232Z,62.90
2023-02-24T07:25:34.253Z,63.03
2023-02-24T07:28:07.493Z,64.25
2023-02-24T07:30:42.031Z,60.53
2023-02-24T07:33:14.467Z,58.88
2023-02-24T07:35:51.124Z,57.10
2023-02-24T07:38:23.116Z,64.43
2023-02-24T07:40:59.004Z,62.95
2023-02-24T07:43:31.141Z,59.40
2023-02-24T07:46:11.923Z,55.05
2023-02-24T07:48:48.920Z,54.28
2023-02-24T07:51:25.633Z,57.88
2023-02-24T07:54:00.292Z,58.50
2023-02-24T07:56:33.749Z,48.72
2023-02-24T07:59:08.095Z,57.72
2023-02-24T08:01:50.046Z,63.40
2023-02-24T08:04:28.801Z,52.08
2023-02-24T08:07:04.351Z,58.03
2023-02-24T08:09:47.043Z,55.95
2023-02-24T08:12:42.811Z,47.72
2023-02-24T08:15:22.200Z,55.70
2023-02-24T08:18:01.318Z,64.40
2023-02-24T08:20:51.416Z,54.78
2023-02-24T08:23:24.027Z,51.45
2023-02-24T08:25:57.623Z,54.65
2023-02-24T08:28:32.964Z,49.97
2023-02-24T08:31:05.499Z,50.60
2023-02-24T08:33:38.216Z,52.22
2023-02-24T08:36:12.128Z,50.92
2023-02-24T08:38:52.199Z,49.80
2023-02-24T08:41:44.923Z,47.40
2023-02-24T08:44:23.032Z,53.65
2023-02-24T08:47:00.768Z,50.58
2023-02-24T08:49:36.128Z,49.70
2023-02-24T08:52:10.975Z,51.95
2023-02-24T08:54:49.295Z,46.13
2023-02-24T08:57:26.292Z,53.70
2023-02-24T08:59:58.884Z,46.90
2023-02-24T09:02:37.303Z,52.78
2023-02-24T09:05:14.817Z,45.13
2023-02-24T09:07:54.889Z,52.50
2023-02-24T09:10:28.681Z,50.35
2023-02-24T09:13:02.322Z,46.83
2023-02-24T09:15:41.911Z,50.03
2023-02-24T09:18:15.587Z,48.78
2023-02-24T09:21:16.246Z,43.80
2023-02-24T09:24:10.215Z,46.88
2023-02-24T09:27:04.569Z,43.65
2023-02-24T09:29:49.496Z,43.33
2023-02-24T09:32:22.549Z,43.10
2023-02-24T09:34:55.269Z,45.40
2023-02-24T09:37:28.176Z,43.33
2023-02-24T09:40:20.576Z,40.05
2023-02-24T09:43:20.648Z,42.97
2023-02-24T09:46:15.180Z,39.20
2023-02-24T09:49:20.500Z,35.80
2023-02-24T09:52:18.528Z,38.45
2023-02-24T09:55:15.879Z,33.00
2023-02-24T09:58:34.714Z,34.92
2023-02-24T10:01:21.555Z,28.15
2023-02-24T10:04:20.648Z,23.05
2023-02-24T10:15:58.499Z,30.15
2023-02-24T10:19:15.489Z,27.00
2023-02-24T10:22:40.777Z,27.98
2023-02-24T10:25:56.870Z,35.55
2023-02-24T10:29:09.251Z,38.15
2023-02-24T10:32:24.331Z,40.47
2023-02-24T10:35:20.063Z,43.97
2023-02-24T10:38:05.540Z,46.83
2023-02-24T10:40:48.350Z,40.72
2023-02-24T10:43:31.780Z,52.33
2023-02-24T10:46:17.646Z,45.30
2023-02-24T10:49:03.323Z,46.17
2023-02-24T10:51:47.383Z,48.75
2023-02-24T10:54:44.780Z,50.03
2023-02-24T10:57:58.200Z,47.10
2023-02-24T11:01:05.797Z,40.63
2023-02-24T11:04:01.712Z,59.78
2023-02-24T11:07:09.873Z,50.40
2023-02-24T11:09:52.881Z,43.90
2023-02-24T11:13:09.909Z,47.92
2023-02-24T11:16:21.565Z,46.25
2023-02-24T11:19:14.020Z,46.10
2023-02-24T11:21:47.337Z,43.20
2023-02-24T11:24:19.926Z,52.20
2023-02-24T11:26:52.677Z,50.75
2023-02-24T11:29:40.047Z,46.17
2023-02-24T11:32:41.779Z,48.22
2023-02-24T11:35:46.433Z,52.60
2023-02-24T11:38:45.483Z,52.83
2023-02-24T11:42:05.494Z,44.67
2023-02-24T11:45:02.964Z,45.10
2023-02-24T11:48:06.493Z,41.22
2023-02-24T11:51:04.268Z,47.70
2023-02-24T11:54:05.854Z,44.25
2023-02-24T11:56:44.205Z,46.35
2023-02-24T11:59:38.718Z,43.15
2023-02-24T12:02:31.301Z,43.78
2023-02-24T12:05:27.346Z,45.67
2023-02-24T12:08:16.813Z,50.15
2023-02-24T12:11:21.845Z,40.33
2023-02-24T12:14:27.564Z,41.13
2023-02-24T12:17:47.208Z,40.10
2023-02-24T12:21:05.632Z,45.97
2023-02-24T12:23:58.974Z,44.97
2023-02-24T12:27:18.534Z,43.75
2023-02-24T12:30:38.794Z,38.80
2023-02-24T12:34:03.572Z,44.63
2023-02-24T12:37:16.899Z,36.80
2023-02-24T12:40:04.323Z,42.38
2023-02-24T12:43:10.344Z,37.40
2023-02-24T12:46:13.396Z,42.83
2023-02-24T12:49:27.469Z,42.85
2023-02-24T12:52:45.307Z,36.20
2023-02-24T12:55:57.489Z,34.58
2023-02-24T12:58:52.907Z,30.55
2023-02-24T13:01:43.758Z,31.50
2023-02-24T13:04:53.895Z,35.28
2023-02-24T13:07:38.580Z,31.92
2023-02-24T13:10:50.320Z,36.72
2023-02-24T13:13:50.585Z,37.58
2023-02-24T13:16:37.862Z,38.47
2023-02-24T13:19:28.720Z,32.70
2023-02-24T13:22:12.483Z,41.00
2023-02-24T13:24:55.797Z,33.50
2023-02-24T13:28:15.478Z,37.20
2023-02-24T13:31:02.628Z,42.05
2023-02-24T13:33:43.375Z,35.92
2023-02-24T13:36:24.820Z,31.85
2023-02-24T13:38:58.143Z,30.30
2023-02-24T13:41:49.492Z,36.47
2023-02-24T13:44:33.754Z,31.63
2023-02-24T13:47:30.517Z,29.08
2023-02-24T13:50:34.673Z,33.42
2023-02-24T13:53:39.054Z,29.20
2023-02-24T13:56:43.772Z,24.50
2023-02-24T13:59:49.698Z,29.75
2023-02-24T14:02:43.031Z,22.02
2023-02-24T14:05:36.262Z,26.48
2023-02-24T14:08:36.173Z,23.33
2023-02-24T14:11:32.697Z,23.50
2023-02-24T14:14:13.857Z,27.08
2023-02-24T14:16:51.438Z,28.75
2023-02-24T14:19:26.621Z,28.83
2023-02-24T14:22:01.584Z,22.40
2023-02-24T14:24:34.556Z,21.45
2023-02-24T14:27:07.002Z,23.38
2023-02-24T14:29:53.992Z,19.17
2023-02-24T14:32:28.946Z,26.95
2023-02-24T14:35:31.562Z,25.08
2023-02-24T14:38:37.791Z,22.75
2023-02-24T14:41:25.879Z,22.92
2023-02-24T14:44:09.181Z,27.90
2023-02-24T14:47:02.806Z,23.17
2023-02-24T14:49:44.510Z,26.10
2023-02-24T14:53:05.828Z,25.77
2023-02-24T14:55:48.746Z,24.73
2023-02-24T14:58:31.221Z,27.88
2023-02-24T15:01:24.765Z,20.80
2023-02-24T15:04:43.843Z,19.55
2023-02-24T15:07:22.662Z,21.08
2023-02-24T15:10:01.175Z,19.00
2023-02-24T15:12:47.157Z,20.60
2023-02-24T15:15:31.796Z,16.80
2023-02-24T15:18:26.139Z,15.52
2023-02-24T15:21:08.369Z,21.85
2023-02-24T15:24:19.858Z,21.27
2023-02-24T15:27:16.452Z,19.05
2023-02-24T15:30:24.993Z,14.15
2023-02-24T15:33:19.534Z,23.00
2023-02-24T15:35:57.275Z,25.45
2023-02-24T15:38:34.409Z,17.45
2023-02-24T15:41:11.680Z,20.52
2023-02-24T15:43:53.344Z,23.25
2023-02-24T15:46:35.753Z,22.60
2023-02-24T15:49:09.794Z,21.77
2023-02-24T15:51:45.680Z,15.52
2023-02-24T15:54:40.230Z,20.83
2023-02-24T15:57:17.505Z,21.83
2023-02-24T15:59:50.187Z,18.90
2023-02-24T16:02:24.591Z,25.95
2023-02-24T16:04:57.095Z,28.05
2023-02-24T16:07:33.960Z,18.92
2023-02-24T16:10:15.404Z,22.20
2023-02-24T16:12:55.464Z,24.45
2023-02-24T16:15:34.212Z,23.25
2023-02-24T16:18:21.557Z,20.50
2023-02-24T16:20:56.976Z,22.08
2023-02-24T16:23:30.371Z,24.05
2023-02-24T16:26:20.075Z,22.00
2023-02-24T16:28:56.423Z,19.55
2023-02-24T16:31:29.091Z,18.55
2023-02-24T16:34:01.854Z,27.17
2023-02-24T16:36:34.709Z,25.10
2023-02-24T16:39:07.387Z,22.00
2023-02-24T16:41:42.650Z,24.42
2023-02-24T16:44:15.265Z,20.33
2023-02-24T16:46:48.212Z,23.63
2023-02-24T16:49:25.677Z,22.05
2023-02-24T16:51:58.432Z,20.60
2023-02-24T16:54:31.080Z,20.00
2023-02-24T16:57:03.526Z,23.58
2023-02-24T16:59:37.720Z,22.83
2023-02-24T17:02:22.821Z,24.85
2023-02-24T17:04:56.157Z,23.27
2023-02-24T17:07:28.983Z,23.92
2023-02-24T17:10:02.462Z,22.88
2023-02-24T17:12:35.355Z,20.77
2023-02-24T17:15:12.714Z,21.00
2023-02-24T17:17:49.325Z,17.92
2023-02-24T17:20:22.128Z,18.50
2023-02-24T17:22:55.815Z,18.95
2023-02-24T17:25:31.090Z,20.73
2023-02-24T17:28:06.271Z,17.42
2023-02-24T17:30:40.131Z,16.83
2023-02-24T17:33:14.824Z,14.65
2023-02-24T17:35:48.876Z,15.75
2023-02-24T17:38:23.288Z,15.13
2023-02-24T17:40:57.624Z,15.93
2023-02-24T17:43:33.257Z,14.73
2023-02-24T17:46:07.364Z,14.00
2023-02-24T17:48:40.206Z,18.20
2023-02-24T17:51:20.300Z,14.10
2023-02-24T17:53:54.760Z,17.23
2023-02-24T17:56:28.233Z,17.85
2023-02-24T17:59:01.165Z,16.17
2023-02-24T18:01:34.009Z,14.00
2023-02-24T18:04:06.705Z,16.95
2023-02-24T18:06:43.692Z,14.98
2023-02-24T18:09:16.317Z,14.02
2023-02-24T18:11:48.657Z,15.15
2023-02-24T18:14:21.148Z,13.18
2023-02-24T18:16:53.704Z,15.43
2023-02-24T18:19:26.044Z,11.55
2023-02-24T18:21:58.394Z,19.13
2023-02-24T18:24:30.948Z,12.73
2023-02-24T18:27:03.385Z,13.82
2023-02-24T18:29:37.076Z,17.67
2023-02-24T18:32:09.609Z,15.30
2023-02-24T18:34:42.606Z,17.00
2023-02-24T18:37:15.082Z,20.23
2023-02-24T18:39:47.530Z,15.43
2023-02-24T18:42:20.193Z,16.17
2023-02-24T18:44:52.753Z,15.57
2023-02-24T18:47:25.415Z,21.75
2023-02-24T18:49:58.338Z,20.40
2023-02-24T18:52:31.073Z,18.00
2023-02-24T18:55:04.229Z,21.10
2023-02-24T18:57:37.524Z,16.33
2023-02-24T19:00:14.024Z,15.88
2023-02-24T19:02:47.432Z,18.20
2023-02-24T19:05:20.813Z,23.02
2023-02-24T19:07:53.502Z,16.42
2023-02-24T19:10:25.949Z,21.40
2023-02-24T19:12:58.465Z,17.98
2023-02-24T19:15:30.983Z,21.23
2023-02-24T19:18:07.441Z,22.45
2023-02-24T19:20:44.534Z,21.17
2023-02-24T19:23:17.252Z,22.70
2023-02-24T19:25:50.189Z,21.40
2023-02-24T19:28:23.671Z,21.15
2023-02-24T19:30:56.609Z,16.85
2023-02-24T19:33:29.628Z,20.60
2023-02-24T19:36:02.389Z,21.17
2023-02-24T19:38:35.842Z,23.23
2023-02-24T19:41:11.487Z,24.08
2023-02-24T19:43:44.870Z,24.08
2023-02-24T19:46:18.795Z,17.90
2023-02-24T19:48:52.015Z,19.00
2023-02-24T19:51:27.957Z,22.08
2023-02-24T19:54:06.409Z,20.58
2023-02-24T19:56:42.719Z,20.80
2023-02-24T19:59:16.900Z,21.13
2023-02-24T20:01:54.720Z,22.00
2023-02-24T20:04:29.544Z,18.25
2023-02-24T20:07:02.533Z,26.73
2023-02-24T20:09:35.556Z,19.42
2023-02-24T20:12:09.118Z,20.40
2023-02-24T20:14:42.564Z,22.83
2023-02-24T20:17:16.068Z,21.20
2023-02-24T20:19:49.378Z,20.25
2023-02-24T20:22:22.597Z,21.85
2023-02-24T20:24:56.023Z,20.15
2023-02-24T20:27:29.232Z,18.88
2023-02-24T20:30:03.010Z,18.23
2023-02-24T20:32:37.624Z,24.08
2023-02-24T20:35:13.858Z,21.75
2023-02-24T20:37:48.073Z,22.42
2023-02-24T20:40:21.537Z,21.75
2023-02-24T20:42:54.623Z,17.80
2023-02-24T20:45:32.252Z,26.23
2023-02-24T20:48:09.591Z,22.45
2023-02-24T20:50:43.087Z,20.88
2023-02-24T20:53:17.206Z,19.00
2023-02-24T20:56:00.494Z,21.63
2023-02-24T20:58:36.885Z,36.65
2023-02-24T21:01:12.403Z,24.80
2023-02-24T21:03:47.691Z,16.42
2023-02-24T21:06:21.843Z,19.60
2023-02-24T21:08:55.576Z,18.77
2023-02-24T21:11:32.256Z,13.73
2023-02-24T21:14:06.499Z,9.95
2023-02-24T21:16:46.603Z,9.73
2023-02-24T21:19:20.354Z,5.00
2023-02-24T21:21:53.458Z,4.78
2023-02-24T21:24:26.236Z,5.45
2023-02-24T21:26:59.699Z,7.38
2023-02-24T21:29:33.690Z,3.70
2023-02-24T21:32:07.057Z,3.38
2023-02-24T21:34:40.342Z,3.67
2023-02-24T21:37:13.082Z,3.30
2023-02-24T21:39:46.142Z,3.20
2023-02-24T21:42:19.089Z,3.80
2023-02-24T21:44:57.795Z,3.10
2023-02-24T21:47:34.026Z,3.65
2023-02-24T21:50:08.758Z,4.10
2023-02-24T21:52:46.895Z,4.60
2023-02-24T21:55:21.236Z,5.55
2023-02-24T21:57:55.459Z,5.13
2023-02-24T22:00:28.913Z,4.60
2023-02-24T22:03:01.831Z,5.13
2023-02-24T22:05:34.980Z,5.03
2023-02-24T22:08:07.838Z,5.90
2023-02-24T22:10:40.652Z,6.18
2023-02-24T22:13:14.168Z,5.28
2023-02-24T22:15:47.070Z,4.95
2023-02-24T22:18:21.239Z,8.55
2023-02-24T22:20:53.805Z,5.47
2023-02-24T22:23:27.068Z,5.30
2023-02-24T22:26:07.627Z,5.28
2023-02-24T22:28:44.156Z,4.75
2023-02-24T22:31:21.666Z,5.43
2023-02-24T22:33:59.062Z,6.32
2023-02-24T22:36:36.810Z,4.97
2023-02-24T22:39:09.894Z,4.60
2023-02-24T22:41:45.600Z,5.00
2023-02-24T22:44:21.800Z,6.68
2023-02-24T22:46:54.827Z,5.32
2023-02-24T22:49:28.401Z,6.95
2023-02-24T22:52:00.820Z,6.50
2023-02-24T22:54:33.157Z,5.80
2023-02-24T22:57:05.336Z,8.18
2023-02-24T22:59:37.442Z,5.30
2023-02-24T23:02:09.934Z,4.57
2023-02-24T23:04:42.161Z,5.40
2023-02-24T23:07:14.821Z,4.80
2023-02-24T23:09:52.930Z,5.22
2023-02-24T23:12:25.452Z,4.88
2023-02-24T23:14:58.718Z,7.03
2023-02-24T23:17:31.020Z,5.20
2023-02-24T23:20:03.676Z,5.15
2023-02-24T23:22:45.293Z,7.00
2023-02-24T23:25:19.632Z,9.20
2023-02-24T23:27:56.988Z,4.80
2023-02-24T23:30:30.168Z,8.07
2023-02-24T23:33:03.379Z,5.50
2023-02-24T23:35:35.408Z,9.05
2023-02-24T23:38:08.561Z,5.50
2023-02-24T23:40:51.133Z,7.55
2023-02-24T23:43:23.475Z,5.75
2023-02-24T23:45:55.785Z,5.35
2023-02-24T23:48:27.922Z,5.38
2023-02-24T23:51:04.260Z,9.23
2023-02-24T23:53:43.630Z,5.45
2023-02-24T23:56:26.700Z,6.95
2023-02-24T23:58:59.685Z,6.43
